メインページ
METAR-TAF:

METAR-TAF

空港 :

ヒヒフォ空港

ウォリス, フランス

緯度: 13-14S, 経度: 176-10W, 海抜: 23m

METAR: 見つかりません

時間: 16:39 (04:39 UTC)

予報

当レポートは5時間39分前の23:00(UTC)に作成
予報は20日の 00時(UTC)から 20日の 24時(UTC)まで有効
東/南東の風 10kt
視程10km以上
高度2600ftの雲は散在している
高度5000ftの雲は散在している
20日の 00時(UTC)から 20日の 06時(UTC)まで一時的に
視程: 4000m
高度1800ftの雲はほとんどない, 塔状積雲.
にわか雨
20日の 12時(UTC)から 20日の 24時(UTC)まで一時的に
視程: 4000m
高度1400ftの千切れ雲あり
高度1800ftの雲はほとんどない, 積乱雲.
にわか雨

TAF: NLWW 192300Z 2000/2024 11010KT 9999 SCT026 SCT050 TEMPO 2000/2006 4000 SHRA FEW018TCU TEMPO 2012/2024 4000 SHRA BKN014 FEW018CB

4,000以上の空港の気象観測と天気予報(METAR報とTAF報)

利用可能な観測所は地図上に黄色い丸と赤い丸で示す。

丸の上にカーソルを重ねると観測所名を参照できる。

次にクリックすると気象観測と天気予報を参照できる。

マップの切り替え:黒色「×」印の緑ボタンをクリックして拡大、「-」印の緑ボタンをクリックして縮小、緑色の三角印をクリックして隣りの地図に切り替え


METAR-TAF: